sensor_id;sensor_type;location;lat;lon;timestamp;P1;durP1;ratioP1;P2;durP2;ratioP2
72379;SDS011;60354;47.798;12.472;2023-11-21T00:01:54;4.95;;;0.95;;
72379;SDS011;60354;47.798;12.472;2023-11-21T00:04:19;5.82;;;0.90;;
72379;SDS011;60354;47.798;12.472;2023-11-21T00:06:45;5.10;;;1.20;;
72379;SDS011;60354;47.798;12.472;2023-11-21T00:09:12;3.83;;;1.05;;
72379;SDS011;60354;47.798;12.472;2023-11-21T00:11:40;6.95;;;1.10;;
72379;SDS011;60354;47.798;12.472;2023-11-21T00:14:09;3.63;;;0.80;;
72379;SDS011;60354;47.798;12.472;2023-11-21T00:16:36;4.32;;;1.20;;
72379;SDS011;60354;47.798;12.472;2023-11-21T00:19:01;5.35;;;1.00;;
72379;SDS011;60354;47.798;12.472;2023-11-21T00:21:27;2.95;;;0.77;;
72379;SDS011;60354;47.798;12.472;2023-11-21T00:23:52;5.00;;;0.85;;
72379;SDS011;60354;47.798;12.472;2023-11-21T00:26:18;2.80;;;0.88;;
72379;SDS011;60354;47.798;12.472;2023-11-21T00:28:50;6.35;;;1.10;;
72379;SDS011;60354;47.798;12.472;2023-11-21T00:31:16;4.57;;;0.90;;
72379;SDS011;60354;47.798;12.472;2023-11-21T00:33:41;5.07;;;1.20;;
72379;SDS011;60354;47.798;12.472;2023-11-21T00:36:08;3.38;;;0.82;;
72379;SDS011;60354;47.798;12.472;2023-11-21T00:38:37;4.47;;;1.15;;
72379;SDS011;60354;47.798;12.472;2023-11-21T00:41:06;2.67;;;0.80;;
72379;SDS011;60354;47.798;12.472;2023-11-21T00:43:31;2.78;;;0.80;;
72379;SDS011;60354;47.798;12.472;2023-11-21T00:45:59;3.28;;;1.00;;
72379;SDS011;60354;47.798;12.472;2023-11-21T00:48:29;5.97;;;1.00;;
72379;SDS011;60354;47.798;12.472;2023-11-21T00:50:55;4.65;;;1.10;;
72379;SDS011;60354;47.798;12.472;2023-11-21T00:53:21;1.92;;;0.70;;
72379;SDS011;60354;47.798;12.472;2023-11-21T00:55:46;4.10;;;0.85;;
72379;SDS011;60354;47.798;12.472;2023-11-21T00:58:12;6.00;;;1.10;;
72379;SDS011;60354;47.798;12.472;2023-11-21T01:00:38;3.92;;;0.98;;
72379;SDS011;60354;47.798;12.472;2023-11-21T01:03:06;6.00;;;0.90;;
72379;SDS011;60354;47.798;12.472;2023-11-21T01:05:33;2.60;;;0.93;;
72379;SDS011;60354;47.798;12.472;2023-11-21T01:07:59;5.10;;;0.90;;
72379;SDS011;60354;47.798;12.472;2023-11-21T01:10:25;2.92;;;0.98;;
72379;SDS011;60354;47.798;12.472;2023-11-21T01:12:50;4.22;;;1.00;;
72379;SDS011;60354;47.798;12.472;2023-11-21T01:15:16;5.45;;;0.98;;
72379;SDS011;60354;47.798;12.472;2023-11-21T01:17:41;4.68;;;1.08;;
72379;SDS011;60354;47.798;12.472;2023-11-21T01:20:08;3.55;;;0.90;;
72379;SDS011;60354;47.798;12.472;2023-11-21T01:22:38;3.20;;;0.95;;
72379;SDS011;60354;47.798;12.472;2023-11-21T01:25:04;4.72;;;1.20;;
72379;SDS011;60354;47.798;12.472;2023-11-21T01:27:31;7.10;;;1.13;;
72379;SDS011;60354;47.798;12.472;2023-11-21T01:29:57;5.63;;;1.60;;
72379;SDS011;60354;47.798;12.472;2023-11-21T01:32:22;4.80;;;2.00;;
72379;SDS011;60354;47.798;12.472;2023-11-21T01:34:50;5.35;;;1.75;;
72379;SDS011;60354;47.798;12.472;2023-11-21T01:37:15;3.83;;;1.40;;
72379;SDS011;60354;47.798;12.472;2023-11-21T01:39:45;4.22;;;1.60;;
72379;SDS011;60354;47.798;12.472;2023-11-21T01:42:12;5.78;;;2.08;;
72379;SDS011;60354;47.798;12.472;2023-11-21T01:44:39;7.65;;;2.17;;
72379;SDS011;60354;47.798;12.472;2023-11-21T01:47:05;6.50;;;1.73;;
72379;SDS011;60354;47.798;12.472;2023-11-21T01:49:35;4.70;;;1.30;;
72379;SDS011;60354;47.798;12.472;2023-11-21T01:52:01;3.85;;;1.10;;
72379;SDS011;60354;47.798;12.472;2023-11-21T01:54:27;6.63;;;1.42;;
72379;SDS011;60354;47.798;12.472;2023-11-21T01:56:59;4.30;;;1.20;;
72379;SDS011;60354;47.798;12.472;2023-11-21T01:59:29;5.22;;;1.10;;
72379;SDS011;60354;47.798;12.472;2023-11-21T02:02:00;6.93;;;1.45;;
72379;SDS011;60354;47.798;12.472;2023-11-21T02:04:25;3.17;;;0.95;;
72379;SDS011;60354;47.798;12.472;2023-11-21T02:06:51;3.05;;;0.90;;
72379;SDS011;60354;47.798;12.472;2023-11-21T02:09:22;4.97;;;1.10;;
72379;SDS011;60354;47.798;12.472;2023-11-21T02:11:51;3.25;;;1.00;;
72379;SDS011;60354;47.798;12.472;2023-11-21T02:14:16;6.55;;;1.00;;
72379;SDS011;60354;47.798;12.472;2023-11-21T02:16:45;5.70;;;1.20;;
72379;SDS011;60354;47.798;12.472;2023-11-21T02:19:14;3.45;;;0.82;;
72379;SDS011;60354;47.798;12.472;2023-11-21T02:21:45;3.83;;;0.90;;
72379;SDS011;60354;47.798;12.472;2023-11-21T02:24:13;5.68;;;1.05;;
72379;SDS011;60354;47.798;12.472;2023-11-21T02:26:39;3.08;;;0.90;;
72379;SDS011;60354;47.798;12.472;2023-11-21T02:29:06;3.97;;;1.10;;
72379;SDS011;60354;47.798;12.472;2023-11-21T02:31:35;5.57;;;1.25;;
72379;SDS011;60354;47.798;12.472;2023-11-21T02:34:02;3.08;;;0.93;;
72379;SDS011;60354;47.798;12.472;2023-11-21T02:36:28;3.03;;;0.82;;
72379;SDS011;60354;47.798;12.472;2023-11-21T02:38:53;4.05;;;1.00;;
72379;SDS011;60354;47.798;12.472;2023-11-21T02:41:19;3.42;;;0.93;;
72379;SDS011;60354;47.798;12.472;2023-11-21T02:43:44;6.78;;;1.30;;
72379;SDS011;60354;47.798;12.472;2023-11-21T02:46:10;3.90;;;1.10;;
72379;SDS011;60354;47.798;12.472;2023-11-21T02:48:36;6.75;;;1.02;;
72379;SDS011;60354;47.798;12.472;2023-11-21T02:51:01;6.32;;;1.33;;
72379;SDS011;60354;47.798;12.472;2023-11-21T02:53:27;5.97;;;1.27;;
72379;SDS011;60354;47.798;12.472;2023-11-21T02:55:53;7.72;;;1.33;;
72379;SDS011;60354;47.798;12.472;2023-11-21T02:58:18;2.28;;;1.00;;
72379;SDS011;60354;47.798;12.472;2023-11-21T03:00:44;5.68;;;1.05;;
72379;SDS011;60354;47.798;12.472;2023-11-21T03:03:09;5.03;;;1.58;;
72379;SDS011;60354;47.798;12.472;2023-11-21T03:05:34;3.50;;;1.48;;
72379;SDS011;60354;47.798;12.472;2023-11-21T03:08:02;4.40;;;1.25;;
72379;SDS011;60354;47.798;12.472;2023-11-21T03:10:27;4.65;;;1.20;;
72379;SDS011;60354;47.798;12.472;2023-11-21T03:12:53;4.35;;;1.25;;
72379;SDS011;60354;47.798;12.472;2023-11-21T03:15:18;4.25;;;1.50;;
72379;SDS011;60354;47.798;12.472;2023-11-21T03:17:44;3.40;;;1.60;;
72379;SDS011;60354;47.798;12.472;2023-11-21T03:20:09;9.05;;;1.92;;
72379;SDS011;60354;47.798;12.472;2023-11-21T03:22:36;4.20;;;1.70;;
72379;SDS011;60354;47.798;12.472;2023-11-21T03:25:03;3.30;;;1.88;;
72379;SDS011;60354;47.798;12.472;2023-11-21T03:27:29;6.13;;;1.83;;
72379;SDS011;60354;47.798;12.472;2023-11-21T03:29:55;3.30;;;1.63;;
72379;SDS011;60354;47.798;12.472;2023-11-21T03:32:20;3.15;;;1.60;;
72379;SDS011;60354;47.798;12.472;2023-11-21T03:34:53;8.23;;;1.90;;
72379;SDS011;60354;47.798;12.472;2023-11-21T03:37:23;3.63;;;1.60;;
72379;SDS011;60354;47.798;12.472;2023-11-21T03:39:48;4.53;;;1.80;;
72379;SDS011;60354;47.798;12.472;2023-11-21T03:42:14;4.93;;;1.80;;
72379;SDS011;60354;47.798;12.472;2023-11-21T03:44:39;5.15;;;1.85;;
72379;SDS011;60354;47.798;12.472;2023-11-21T03:47:05;5.90;;;2.05;;
72379;SDS011;60354;47.798;12.472;2023-11-21T03:49:30;7.63;;;1.90;;
72379;SDS011;60354;47.798;12.472;2023-11-21T03:51:56;4.90;;;1.83;;
72379;SDS011;60354;47.798;12.472;2023-11-21T03:54:22;5.50;;;1.70;;
72379;SDS011;60354;47.798;12.472;2023-11-21T03:56:47;4.03;;;1.75;;
72379;SDS011;60354;47.798;12.472;2023-11-21T03:59:14;3.78;;;1.70;;
72379;SDS011;60354;47.798;12.472;2023-11-21T04:01:39;4.10;;;1.48;;
72379;SDS011;60354;47.798;12.472;2023-11-21T04:04:05;4.47;;;1.60;;
72379;SDS011;60354;47.798;12.472;2023-11-21T04:06:30;4.40;;;1.65;;
72379;SDS011;60354;47.798;12.472;2023-11-21T04:08:58;2.90;;;1.48;;
72379;SDS011;60354;47.798;12.472;2023-11-21T04:11:23;6.53;;;1.88;;
72379;SDS011;60354;47.798;12.472;2023-11-21T04:13:49;5.80;;;1.70;;
72379;SDS011;60354;47.798;12.472;2023-11-21T04:16:14;3.67;;;1.75;;
72379;SDS011;60354;47.798;12.472;2023-11-21T04:18:40;4.72;;;1.58;;
72379;SDS011;60354;47.798;12.472;2023-11-21T04:21:05;3.33;;;1.50;;
72379;SDS011;60354;47.798;12.472;2023-11-21T04:23:31;3.90;;;1.95;;
72379;SDS011;60354;47.798;12.472;2023-11-21T04:25:57;4.72;;;1.55;;
72379;SDS011;60354;47.798;12.472;2023-11-21T04:28:23;3.92;;;1.58;;
72379;SDS011;60354;47.798;12.472;2023-11-21T04:30:49;4.25;;;1.50;;
72379;SDS011;60354;47.798;12.472;2023-11-21T04:33:15;5.80;;;1.63;;
72379;SDS011;60354;47.798;12.472;2023-11-21T04:35:41;5.85;;;1.80;;
72379;SDS011;60354;47.798;12.472;2023-11-21T04:38:07;3.85;;;1.80;;
72379;SDS011;60354;47.798;12.472;2023-11-21T04:40:32;3.75;;;1.55;;
72379;SDS011;60354;47.798;12.472;2023-11-21T04:42:58;5.35;;;1.80;;
72379;SDS011;60354;47.798;12.472;2023-11-21T04:45:23;2.80;;;1.65;;
72379;SDS011;60354;47.798;12.472;2023-11-21T04:47:49;4.43;;;1.70;;
72379;SDS011;60354;47.798;12.472;2023-11-21T04:50:14;3.45;;;1.80;;
72379;SDS011;60354;47.798;12.472;2023-11-21T04:52:39;6.20;;;2.00;;
72379;SDS011;60354;47.798;12.472;2023-11-21T04:55:05;3.78;;;1.73;;
72379;SDS011;60354;47.798;12.472;2023-11-21T04:57:35;5.47;;;1.58;;
72379;SDS011;60354;47.798;12.472;2023-11-21T05:00:06;4.32;;;1.73;;
72379;SDS011;60354;47.798;12.472;2023-11-21T05:02:32;4.97;;;1.63;;
72379;SDS011;60354;47.798;12.472;2023-11-21T05:05:01;4.43;;;1.58;;
72379;SDS011;60354;47.798;12.472;2023-11-21T05:07:27;3.90;;;1.38;;
72379;SDS011;60354;47.798;12.472;2023-11-21T05:09:55;4.75;;;1.40;;
72379;SDS011;60354;47.798;12.472;2023-11-21T05:12:24;2.88;;;1.40;;
72379;SDS011;60354;47.798;12.472;2023-11-21T05:14:50;4.82;;;1.70;;
72379;SDS011;60354;47.798;12.472;2023-11-21T05:17:16;4.40;;;2.03;;
72379;SDS011;60354;47.798;12.472;2023-11-21T05:19:42;5.82;;;2.50;;
72379;SDS011;60354;47.798;12.472;2023-11-21T05:22:08;5.45;;;2.25;;
72379;SDS011;60354;47.798;12.472;2023-11-21T05:24:33;7.05;;;3.35;;
72379;SDS011;60354;47.798;12.472;2023-11-21T05:27:00;5.10;;;2.83;;
72379;SDS011;60354;47.798;12.472;2023-11-21T05:29:25;5.70;;;2.20;;
72379;SDS011;60354;47.798;12.472;2023-11-21T05:31:51;10.90;;;4.95;;
72379;SDS011;60354;47.798;12.472;2023-11-21T05:34:18;6.55;;;2.20;;
72379;SDS011;60354;47.798;12.472;2023-11-21T05:36:43;5.07;;;1.80;;
72379;SDS011;60354;47.798;12.472;2023-11-21T05:39:10;8.00;;;1.92;;
72379;SDS011;60354;47.798;12.472;2023-11-21T05:41:36;5.68;;;1.60;;
72379;SDS011;60354;47.798;12.472;2023-11-21T05:44:02;6.00;;;1.50;;
72379;SDS011;60354;47.798;12.472;2023-11-21T05:46:27;5.65;;;2.00;;
72379;SDS011;60354;47.798;12.472;2023-11-21T05:48:53;6.10;;;1.88;;
72379;SDS011;60354;47.798;12.472;2023-11-21T05:51:18;5.85;;;1.70;;
72379;SDS011;60354;47.798;12.472;2023-11-21T05:53:44;6.85;;;1.70;;
72379;SDS011;60354;47.798;12.472;2023-11-21T05:56:09;5.50;;;1.77;;
72379;SDS011;60354;47.798;12.472;2023-11-21T05:58:35;6.60;;;1.73;;
72379;SDS011;60354;47.798;12.472;2023-11-21T06:01:00;5.90;;;1.63;;
72379;SDS011;60354;47.798;12.472;2023-11-21T06:03:26;7.60;;;1.70;;
72379;SDS011;60354;47.798;12.472;2023-11-21T06:05:51;3.80;;;1.40;;
72379;SDS011;60354;47.798;12.472;2023-11-21T06:08:17;6.43;;;1.70;;
72379;SDS011;60354;47.798;12.472;2023-11-21T06:10:43;5.07;;;1.80;;
72379;SDS011;60354;47.798;12.472;2023-11-21T06:13:09;8.57;;;1.60;;
72379;SDS011;60354;47.798;12.472;2023-11-21T06:15:35;4.53;;;1.70;;
72379;SDS011;60354;47.798;12.472;2023-11-21T06:18:01;5.78;;;2.15;;
72379;SDS011;60354;47.798;12.472;2023-11-21T06:20:27;9.05;;;1.95;;
72379;SDS011;60354;47.798;12.472;2023-11-21T06:22:53;9.77;;;3.58;;
72379;SDS011;60354;47.798;12.472;2023-11-21T06:25:19;8.80;;;3.17;;
72379;SDS011;60354;47.798;12.472;2023-11-21T06:27:45;6.22;;;2.35;;
72379;SDS011;60354;47.798;12.472;2023-11-21T06:30:13;9.10;;;2.50;;
72379;SDS011;60354;47.798;12.472;2023-11-21T06:32:40;5.82;;;2.30;;
72379;SDS011;60354;47.798;12.472;2023-11-21T06:35:06;4.18;;;1.90;;
72379;SDS011;60354;47.798;12.472;2023-11-21T06:37:33;10.85;;;2.70;;
72379;SDS011;60354;47.798;12.472;2023-11-21T06:39:59;7.55;;;1.77;;
72379;SDS011;60354;47.798;12.472;2023-11-21T06:42:25;6.32;;;1.80;;
72379;SDS011;60354;47.798;12.472;2023-11-21T06:44:52;6.28;;;2.22;;
72379;SDS011;60354;47.798;12.472;2023-11-21T06:47:18;7.35;;;2.55;;
72379;SDS011;60354;47.798;12.472;2023-11-21T06:49:47;8.35;;;2.45;;
72379;SDS011;60354;47.798;12.472;2023-11-21T06:52:15;7.00;;;3.00;;
72379;SDS011;60354;47.798;12.472;2023-11-21T06:54:40;5.55;;;2.80;;
72379;SDS011;60354;47.798;12.472;2023-11-21T06:57:06;6.35;;;2.58;;
72379;SDS011;60354;47.798;12.472;2023-11-21T06:59:31;9.30;;;2.20;;
72379;SDS011;60354;47.798;12.472;2023-11-21T07:01:57;7.07;;;2.20;;
72379;SDS011;60354;47.798;12.472;2023-11-21T07:04:22;6.57;;;2.22;;
72379;SDS011;60354;47.798;12.472;2023-11-21T07:06:49;5.40;;;2.13;;
72379;SDS011;60354;47.798;12.472;2023-11-21T07:09:14;4.15;;;1.90;;
72379;SDS011;60354;47.798;12.472;2023-11-21T07:11:40;5.13;;;1.70;;
72379;SDS011;60354;47.798;12.472;2023-11-21T07:14:06;4.22;;;1.73;;
72379;SDS011;60354;47.798;12.472;2023-11-21T07:16:35;6.55;;;1.90;;
72379;SDS011;60354;47.798;12.472;2023-11-21T07:19:04;5.63;;;2.00;;
72379;SDS011;60354;47.798;12.472;2023-11-21T07:21:34;4.88;;;1.88;;
72379;SDS011;60354;47.798;12.472;2023-11-21T07:24:01;5.88;;;2.05;;
72379;SDS011;60354;47.798;12.472;2023-11-21T07:26:27;5.72;;;2.30;;
72379;SDS011;60354;47.798;12.472;2023-11-21T07:28:53;5.78;;;2.35;;
72379;SDS011;60354;47.798;12.472;2023-11-21T07:31:18;4.13;;;2.40;;
72379;SDS011;60354;47.798;12.472;2023-11-21T07:33:44;7.78;;;2.42;;
72379;SDS011;60354;47.798;12.472;2023-11-21T07:36:13;5.07;;;2.80;;
72379;SDS011;60354;47.798;12.472;2023-11-21T07:38:39;5.18;;;2.60;;
72379;SDS011;60354;47.798;12.472;2023-11-21T07:41:05;5.10;;;2.78;;
72379;SDS011;60354;47.798;12.472;2023-11-21T07:43:33;7.45;;;2.85;;
72379;SDS011;60354;47.798;12.472;2023-11-21T07:46:03;12.25;;;3.05;;
72379;SDS011;60354;47.798;12.472;2023-11-21T07:48:30;8.90;;;3.45;;
72379;SDS011;60354;47.798;12.472;2023-11-21T07:51:05;7.28;;;3.17;;
72379;SDS011;60354;47.798;12.472;2023-11-21T07:53:32;8.40;;;3.38;;
72379;SDS011;60354;47.798;12.472;2023-11-21T07:55:58;10.63;;;5.35;;
72379;SDS011;60354;47.798;12.472;2023-11-21T07:58:30;6.40;;;2.33;;
72379;SDS011;60354;47.798;12.472;2023-11-21T08:00:56;6.32;;;2.22;;
72379;SDS011;60354;47.798;12.472;2023-11-21T08:03:21;5.22;;;2.00;;
72379;SDS011;60354;47.798;12.472;2023-11-21T08:05:47;7.50;;;2.10;;
72379;SDS011;60354;47.798;12.472;2023-11-21T08:08:12;6.78;;;2.92;;
72379;SDS011;60354;47.798;12.472;2023-11-21T08:10:38;8.45;;;3.65;;
72379;SDS011;60354;47.798;12.472;2023-11-21T08:13:07;8.45;;;3.67;;
72379;SDS011;60354;47.798;12.472;2023-11-21T08:15:34;7.43;;;3.40;;
72379;SDS011;60354;47.798;12.472;2023-11-21T08:18:00;8.10;;;3.83;;
72379;SDS011;60354;47.798;12.472;2023-11-21T08:20:26;11.40;;;5.43;;
72379;SDS011;60354;47.798;12.472;2023-11-21T08:22:51;13.82;;;6.20;;
72379;SDS011;60354;47.798;12.472;2023-11-21T08:25:18;6.95;;;4.30;;
72379;SDS011;60354;47.798;12.472;2023-11-21T08:27:45;7.70;;;3.42;;
72379;SDS011;60354;47.798;12.472;2023-11-21T08:30:11;9.85;;;3.90;;
72379;SDS011;60354;47.798;12.472;2023-11-21T08:32:37;8.15;;;2.97;;
72379;SDS011;60354;47.798;12.472;2023-11-21T08:35:03;8.48;;;2.92;;
72379;SDS011;60354;47.798;12.472;2023-11-21T08:37:29;9.70;;;3.40;;
72379;SDS011;60354;47.798;12.472;2023-11-21T08:39:57;8.73;;;3.95;;
72379;SDS011;60354;47.798;12.472;2023-11-21T08:42:24;11.88;;;4.20;;
72379;SDS011;60354;47.798;12.472;2023-11-21T08:44:49;7.47;;;3.38;;
72379;SDS011;60354;47.798;12.472;2023-11-21T08:47:16;5.10;;;2.45;;
72379;SDS011;60354;47.798;12.472;2023-11-21T08:49:41;7.45;;;2.17;;
72379;SDS011;60354;47.798;12.472;2023-11-21T08:52:07;6.38;;;1.73;;
72379;SDS011;60354;47.798;12.472;2023-11-21T08:54:33;7.95;;;1.88;;
72379;SDS011;60354;47.798;12.472;2023-11-21T08:56:59;4.90;;;1.80;;
72379;SDS011;60354;47.798;12.472;2023-11-21T08:59:25;6.20;;;1.90;;
72379;SDS011;60354;47.798;12.472;2023-11-21T09:01:51;3.90;;;2.10;;
72379;SDS011;60354;47.798;12.472;2023-11-21T09:04:17;8.18;;;1.90;;
72379;SDS011;60354;47.798;12.472;2023-11-21T09:06:42;5.25;;;1.65;;
72379;SDS011;60354;47.798;12.472;2023-11-21T09:09:08;7.13;;;1.88;;
72379;SDS011;60354;47.798;12.472;2023-11-21T09:11:35;5.65;;;1.40;;
72379;SDS011;60354;47.798;12.472;2023-11-21T09:14:01;6.63;;;2.00;;
72379;SDS011;60354;47.798;12.472;2023-11-21T09:16:28;5.60;;;1.90;;
72379;SDS011;60354;47.798;12.472;2023-11-21T09:18:54;4.22;;;1.90;;
72379;SDS011;60354;47.798;12.472;2023-11-21T09:21:19;5.35;;;1.77;;
72379;SDS011;60354;47.798;12.472;2023-11-21T09:23:45;4.53;;;1.60;;
72379;SDS011;60354;47.798;12.472;2023-11-21T09:26:11;5.03;;;1.67;;
72379;SDS011;60354;47.798;12.472;2023-11-21T09:28:36;6.18;;;1.80;;
72379;SDS011;60354;47.798;12.472;2023-11-21T09:31:04;5.53;;;1.70;;
72379;SDS011;60354;47.798;12.472;2023-11-21T09:33:30;3.65;;;1.48;;
72379;SDS011;60354;47.798;12.472;2023-11-21T09:35:56;4.78;;;1.60;;
72379;SDS011;60354;47.798;12.472;2023-11-21T09:38:22;4.38;;;1.50;;
72379;SDS011;60354;47.798;12.472;2023-11-21T09:40:48;4.35;;;1.63;;
72379;SDS011;60354;47.798;12.472;2023-11-21T09:43:18;4.32;;;1.23;;
72379;SDS011;60354;47.798;12.472;2023-11-21T09:45:45;3.78;;;1.20;;
72379;SDS011;60354;47.798;12.472;2023-11-21T09:48:13;1.88;;;0.98;;
72379;SDS011;60354;47.798;12.472;2023-11-21T09:50:40;3.58;;;1.10;;
72379;SDS011;60354;47.798;12.472;2023-11-21T09:55:51;3.40;;;1.30;;
72379;SDS011;60354;47.798;12.472;2023-11-21T09:58:18;2.58;;;1.00;;
72379;SDS011;60354;47.798;12.472;2023-11-21T10:00:48;1.70;;;0.80;;
72379;SDS011;60354;47.798;12.472;2023-11-21T10:03:17;1.50;;;0.73;;
72379;SDS011;60354;47.798;12.472;2023-11-21T10:05:43;4.88;;;0.90;;
72379;SDS011;60354;47.798;12.472;2023-11-21T10:08:11;3.67;;;0.98;;
72379;SDS011;60354;47.798;12.472;2023-11-21T10:10:37;1.90;;;0.90;;
72379;SDS011;60354;47.798;12.472;2023-11-21T10:13:07;3.15;;;0.77;;
72379;SDS011;60354;47.798;12.472;2023-11-21T10:15:36;2.72;;;0.77;;
72379;SDS011;60354;47.798;12.472;2023-11-21T10:18:04;1.27;;;0.80;;
72379;SDS011;60354;47.798;12.472;2023-11-21T10:20:32;3.97;;;0.73;;
72379;SDS011;60354;47.798;12.472;2023-11-21T10:23:03;1.35;;;0.50;;
72379;SDS011;60354;47.798;12.472;2023-11-21T10:25:29;0.98;;;0.68;;
72379;SDS011;60354;47.798;12.472;2023-11-21T10:27:59;1.45;;;0.50;;
72379;SDS011;60354;47.798;12.472;2023-11-21T10:30:27;0.98;;;0.60;;
72379;SDS011;60354;47.798;12.472;2023-11-21T10:33:00;2.05;;;0.80;;
72379;SDS011;60354;47.798;12.472;2023-11-21T10:35:48;5.60;;;0.60;;
72379;SDS011;60354;47.798;12.472;2023-11-21T10:38:19;1.58;;;0.60;;
72379;SDS011;60354;47.798;12.472;2023-11-21T10:40:49;1.70;;;0.50;;
72379;SDS011;60354;47.798;12.472;2023-11-21T10:43:15;1.13;;;0.60;;
72379;SDS011;60354;47.798;12.472;2023-11-21T10:45:42;1.15;;;0.70;;
72379;SDS011;60354;47.798;12.472;2023-11-21T10:48:14;2.35;;;0.60;;
72379;SDS011;60354;47.798;12.472;2023-11-21T10:50:40;1.67;;;0.60;;
72379;SDS011;60354;47.798;12.472;2023-11-21T10:53:06;0.73;;;0.40;;
72379;SDS011;60354;47.798;12.472;2023-11-21T10:55:33;0.65;;;0.50;;
72379;SDS011;60354;47.798;12.472;2023-11-21T10:58:00;0.55;;;0.50;;
72379;SDS011;60354;47.798;12.472;2023-11-21T11:00:27;2.63;;;0.77;;
72379;SDS011;60354;47.798;12.472;2023-11-21T11:02:54;1.17;;;0.60;;
72379;SDS011;60354;47.798;12.472;2023-11-21T11:05:20;1.23;;;0.50;;
72379;SDS011;60354;47.798;12.472;2023-11-21T11:07:51;2.15;;;0.88;;
72379;SDS011;60354;47.798;12.472;2023-11-21T11:10:25;2.65;;;0.70;;
72379;SDS011;60354;47.798;12.472;2023-11-21T11:12:53;0.73;;;0.60;;
72379;SDS011;60354;47.798;12.472;2023-11-21T11:15:19;0.93;;;0.40;;
72379;SDS011;60354;47.798;12.472;2023-11-21T11:17:45;3.05;;;0.68;;
72379;SDS011;60354;47.798;12.472;2023-11-21T11:20:11;1.30;;;0.60;;
72379;SDS011;60354;47.798;12.472;2023-11-21T11:28:51;1.17;;;0.50;;
72379;SDS011;60354;47.798;12.472;2023-11-21T11:36:48;0.50;;;0.50;;
72379;SDS011;60354;47.798;12.472;2023-11-21T11:41:56;0.98;;;0.57;;
72379;SDS011;60354;47.798;12.472;2023-11-21T11:47:19;3.22;;;1.05;;
72379;SDS011;60354;47.798;12.472;2023-11-21T11:49:58;1.83;;;0.80;;
72379;SDS011;60354;47.798;12.472;2023-11-21T11:52:45;2.50;;;0.90;;
72379;SDS011;60354;47.798;12.472;2023-11-21T11:55:15;6.43;;;1.90;;
72379;SDS011;60354;47.798;12.472;2023-11-21T11:57:44;5.40;;;2.28;;
72379;SDS011;60354;47.798;12.472;2023-11-21T12:00:15;1.85;;;0.80;;
72379;SDS011;60354;47.798;12.472;2023-11-21T12:02:53;4.55;;;1.83;;
72379;SDS011;60354;47.798;12.472;2023-11-21T12:05:20;11.07;;;4.63;;
72379;SDS011;60354;47.798;12.472;2023-11-21T12:07:47;4.60;;;1.30;;
72379;SDS011;60354;47.798;12.472;2023-11-21T12:10:17;3.85;;;1.90;;
72379;SDS011;60354;47.798;12.472;2023-11-21T12:12:47;1.60;;;1.23;;
72379;SDS011;60354;47.798;12.472;2023-11-21T12:15:14;2.08;;;1.23;;
72379;SDS011;60354;47.798;12.472;2023-11-21T12:17:43;1.75;;;1.00;;
72379;SDS011;60354;47.798;12.472;2023-11-21T12:20:11;1.60;;;0.57;;
72379;SDS011;60354;47.798;12.472;2023-11-21T12:22:43;1.63;;;0.60;;
72379;SDS011;60354;47.798;12.472;2023-11-21T12:25:13;2.00;;;0.80;;
72379;SDS011;60354;47.798;12.472;2023-11-21T12:27:44;1.13;;;0.70;;
72379;SDS011;60354;47.798;12.472;2023-11-21T12:30:11;2.03;;;0.70;;
72379;SDS011;60354;47.798;12.472;2023-11-21T12:32:39;1.40;;;0.70;;
72379;SDS011;60354;47.798;12.472;2023-11-21T12:35:06;1.27;;;0.80;;
72379;SDS011;60354;47.798;12.472;2023-11-21T12:37:35;0.90;;;0.60;;
72379;SDS011;60354;47.798;12.472;2023-11-21T12:40:02;1.98;;;0.70;;
72379;SDS011;60354;47.798;12.472;2023-11-21T12:42:27;1.98;;;0.90;;
72379;SDS011;60354;47.798;12.472;2023-11-21T12:45:08;1.38;;;0.73;;
72379;SDS011;60354;47.798;12.472;2023-11-21T12:47:45;1.63;;;0.70;;
72379;SDS011;60354;47.798;12.472;2023-11-21T12:50:20;3.45;;;0.88;;
72379;SDS011;60354;47.798;12.472;2023-11-21T12:52:51;5.82;;;1.00;;
72379;SDS011;60354;47.798;12.472;2023-11-21T12:55:19;0.75;;;0.60;;
72379;SDS011;60354;47.798;12.472;2023-11-21T12:57:49;1.08;;;0.70;;
72379;SDS011;60354;47.798;12.472;2023-11-21T13:00:56;2.28;;;0.90;;
72379;SDS011;60354;47.798;12.472;2023-11-21T13:03:15;1.08;;;0.85;;
72379;SDS011;60354;47.798;12.472;2023-11-21T13:05:45;1.80;;;0.80;;
72379;SDS011;60354;47.798;12.472;2023-11-21T13:08:15;1.10;;;0.75;;
72379;SDS011;60354;47.798;12.472;2023-11-21T13:10:44;1.13;;;0.75;;
72379;SDS011;60354;47.798;12.472;2023-11-21T13:13:12;2.47;;;0.82;;
72379;SDS011;60354;47.798;12.472;2023-11-21T13:15:55;1.75;;;0.90;;
72379;SDS011;60354;47.798;12.472;2023-11-21T13:18:22;2.33;;;0.90;;
72379;SDS011;60354;47.798;12.472;2023-11-21T13:20:56;2.30;;;0.90;;
72379;SDS011;60354;47.798;12.472;2023-11-21T13:23:23;1.45;;;0.80;;
72379;SDS011;60354;47.798;12.472;2023-11-21T13:25:49;1.33;;;0.77;;
72379;SDS011;60354;47.798;12.472;2023-11-21T13:28:15;2.25;;;0.90;;
72379;SDS011;60354;47.798;12.472;2023-11-21T13:30:43;1.60;;;0.90;;
72379;SDS011;60354;47.798;12.472;2023-11-21T13:33:09;2.10;;;0.80;;
72379;SDS011;60354;47.798;12.472;2023-11-21T13:35:38;1.00;;;0.80;;
72379;SDS011;60354;47.798;12.472;2023-11-21T13:38:07;6.20;;;1.20;;
72379;SDS011;60354;47.798;12.472;2023-11-21T13:40:34;3.90;;;1.30;;
72379;SDS011;60354;47.798;12.472;2023-11-21T13:43:11;2.72;;;1.35;;
72379;SDS011;60354;47.798;12.472;2023-11-21T13:45:38;2.45;;;0.90;;
72379;SDS011;60354;47.798;12.472;2023-11-21T13:48:05;1.42;;;0.80;;
72379;SDS011;60354;47.798;12.472;2023-11-21T13:50:35;1.88;;;0.80;;
72379;SDS011;60354;47.798;12.472;2023-11-21T13:53:02;1.55;;;0.80;;
72379;SDS011;60354;47.798;12.472;2023-11-21T13:55:34;4.88;;;0.80;;
72379;SDS011;60354;47.798;12.472;2023-11-21T13:58:01;0.90;;;0.68;;
72379;SDS011;60354;47.798;12.472;2023-11-21T14:00:27;1.75;;;0.77;;
72379;SDS011;60354;47.798;12.472;2023-11-21T14:03:08;0.88;;;0.80;;
72379;SDS011;60354;47.798;12.472;2023-11-21T14:05:42;2.25;;;0.90;;
72379;SDS011;60354;47.798;12.472;2023-11-21T14:08:10;1.83;;;1.20;;
72379;SDS011;60354;47.798;12.472;2023-11-21T14:10:37;1.50;;;1.02;;
72379;SDS011;60354;47.798;12.472;2023-11-21T14:13:08;2.72;;;1.30;;
72379;SDS011;60354;47.798;12.472;2023-11-21T14:15:41;2.15;;;1.08;;
72379;SDS011;60354;47.798;12.472;2023-11-21T14:18:08;1.45;;;1.00;;
72379;SDS011;60354;47.798;12.472;2023-11-21T14:20:36;3.38;;;2.05;;
72379;SDS011;60354;47.798;12.472;2023-11-21T14:23:03;11.10;;;3.33;;
72379;SDS011;60354;47.798;12.472;2023-11-21T14:25:31;6.75;;;2.08;;
72379;SDS011;60354;47.798;12.472;2023-11-21T14:27:57;5.18;;;1.30;;
72379;SDS011;60354;47.798;12.472;2023-11-21T14:30:23;3.28;;;1.38;;
72379;SDS011;60354;47.798;12.472;2023-11-21T14:32:48;1.98;;;1.20;;
72379;SDS011;60354;47.798;12.472;2023-11-21T14:35:15;2.90;;;1.52;;
72379;SDS011;60354;47.798;12.472;2023-11-21T14:37:41;2.67;;;1.65;;
72379;SDS011;60354;47.798;12.472;2023-11-21T14:40:08;3.85;;;2.00;;
72379;SDS011;60354;47.798;12.472;2023-11-21T14:42:34;3.50;;;2.22;;
72379;SDS011;60354;47.798;12.472;2023-11-21T14:45:03;8.20;;;2.15;;
72379;SDS011;60354;47.798;12.472;2023-11-21T14:47:32;4.03;;;1.60;;
72379;SDS011;60354;47.798;12.472;2023-11-21T14:49:59;3.80;;;2.13;;
72379;SDS011;60354;47.798;12.472;2023-11-21T14:52:40;4.70;;;2.40;;
72379;SDS011;60354;47.798;12.472;2023-11-21T14:55:20;6.25;;;3.20;;